Time;durP1;ratioP1;P1;durP2;ratioP2;P2;SDS_P1;SDS_P2;PMS_P1;PMS_P2;Temp;Humidity;BMP_temperature;BMP_pressure;BME280_temperature;BME280_humidity;BME280_pressure;Samples;Min_cycle;Max_cycle;Signal;HPM_P1;HPM_P2
2024/04/03 00:01:23;;;;;;;6.13;1.30;;;;;;;8.55;99.70;98829.41;5047176;28;20057;-64
2024/04/03 00:03:49;;;;;;;9.18;2.20;;;;;;;8.52;99.67;98830.91;5034764;28;20049;-63
2024/04/03 00:06:16;;;;;;;6.60;1.67;;;;;;;8.52;99.67;98824.63;5029628;28;20383;-64
2024/04/03 00:08:42;;;;;;;11.95;1.90;;;;;;;8.53;99.63;98821.50;5046407;28;20049;-64
2024/04/03 00:11:08;;;;;;;4.03;1.58;;;;;;;8.55;99.67;98812.84;5033707;28;20060;-64
2024/04/03 00:13:35;;;;;;;7.57;3.42;;;;;;;8.55;99.64;98819.13;5046891;28;20059;-64
2024/04/03 00:16:01;;;;;;;13.75;1.95;;;;;;;8.52;99.90;98805.34;5046066;28;20045;-64
2024/04/03 00:18:28;;;;;;;4.63;1.60;;;;;;;8.49;100.00;98806.09;5045906;28;20550;-64
2024/04/03 00:21:02;;;;;;;6.38;1.83;;;;;;;8.47;100.00;98795.41;5046750;28;20409;-64
2024/04/03 00:23:28;;;;;;;9.60;1.90;;;;;;;8.45;100.00;98802.47;5044521;28;20377;-64
2024/04/03 00:25:59;;;;;;;5.85;1.67;;;;;;;8.42;100.00;98800.47;5045504;28;20515;-64
2024/04/03 00:28:26;;;;;;;8.05;1.83;;;;;;;8.39;100.00;98793.75;5045999;28;20434;-64
2024/04/03 00:30:53;;;;;;;8.07;2.22;;;;;;;8.36;100.00;98794.53;5045877;28;20537;-64
2024/04/03 00:33:20;;;;;;;6.35;1.48;;;;;;;8.33;100.00;98787.00;5045210;28;20057;-64
2024/04/03 00:36:00;;;;;;;10.68;2.55;;;;;;;8.31;100.00;98783.06;5046307;28;20047;-64
2024/04/03 00:38:27;;;;;;;8.43;2.17;;;;;;;8.27;100.00;98785.75;5038260;28;20073;-64
2024/04/03 00:40:57;;;;;;;6.80;2.10;;;;;;;8.24;100.00;98791.19;5045911;28;20060;-64
2024/04/03 00:43:25;;;;;;;8.65;1.88;;;;;;;8.24;100.00;98788.44;5044409;28;20407;-64
2024/04/03 00:45:53;;;;;;;3.88;2.03;;;;;;;8.23;100.00;98775.84;5044793;28;20431;-64
2024/04/03 00:48:21;;;;;;;4.00;2.00;;;;;;;8.21;100.00;98770.69;5012909;28;20136;-63
2024/04/03 00:50:49;;;;;;;5.00;1.80;;;;;;;8.20;100.00;98769.13;5033339;28;20061;-64
2024/04/03 00:53:15;;;;;;;7.10;1.90;;;;;;;8.18;100.00;98765.91;5043755;28;20503;-64
2024/04/03 00:55:42;;;;;;;5.07;2.75;;;;;;;8.19;100.00;98766.72;5045522;28;20515;-64
2024/04/03 00:58:09;;;;;;;7.07;2.15;;;;;;;8.19;100.00;98772.22;5045132;28;20059;-64
2024/04/03 01:00:35;;;;;;;8.65;2.03;;;;;;;8.15;100.00;98766.69;5045048;28;20383;-64
2024/04/03 01:03:04;;;;;;;7.40;2.30;;;;;;;8.15;100.00;98758.44;5029411;28;20040;-63
2024/04/03 01:05:31;;;;;;;9.43;2.03;;;;;;;8.15;100.00;98749.38;5045507;28;20782;-64
2024/04/03 01:07:58;;;;;;;11.25;3.00;;;;;;;8.14;100.00;98747.78;5044909;28;20099;-64
2024/04/03 01:10:26;;;;;;;9.45;2.03;;;;;;;8.13;100.00;98746.19;5029500;28;20411;-65
2024/04/03 01:12:54;;;;;;;13.45;2.75;;;;;;;8.13;100.00;98735.19;5023408;28;20053;-64
2024/04/03 01:15:22;;;;;;;8.20;2.03;;;;;;;8.16;100.00;98737.16;5039217;28;20052;-64
2024/04/03 01:17:49;;;;;;;15.75;2.58;;;;;;;8.16;100.00;98740.72;5044762;28;20747;-64
2024/04/03 01:20:18;;;;;;;8.55;2.40;;;;;;;8.18;100.00;98732.06;5045446;28;20673;-64
2024/04/03 01:22:45;;;;;;;16.63;2.30;;;;;;;8.20;100.00;98735.25;5045742;28;20044;-64
2024/04/03 01:25:11;;;;;;;12.77;2.17;;;;;;;8.19;100.00;98728.94;5045064;28;20056;-64
2024/04/03 01:27:37;;;;;;;10.82;2.28;;;;;;;8.19;100.00;98731.69;5045112;28;20049;-64
2024/04/03 01:30:04;;;;;;;8.52;1.85;;;;;;;8.20;100.00;98729.72;5045141;28;20071;-64
2024/04/03 01:32:31;;;;;;;11.18;2.33;;;;;;;8.20;100.00;98718.69;5045028;28;20068;-64
2024/04/03 01:34:57;;;;;;;13.80;3.83;;;;;;;8.19;100.00;98717.91;5039922;28;20430;-65
2024/04/03 01:37:23;;;;;;;7.35;2.33;;;;;;;8.21;100.00;98725.78;5044890;28;20049;-64
2024/04/03 01:39:49;;;;;;;7.85;1.92;;;;;;;8.21;100.00;98721.06;5044486;28;20079;-64
2024/04/03 01:42:17;;;;;;;6.88;1.80;;;;;;;8.23;100.00;98709.69;5044269;28;20056;-64
2024/04/03 01:44:43;;;;;;;9.82;1.88;;;;;;;8.22;100.00;98710.84;5044460;28;20584;-64
2024/04/03 01:47:11;;;;;;;10.38;2.28;;;;;;;8.23;100.00;98713.25;5041888;28;20060;-63
2024/04/03 01:49:37;;;;;;;8.98;3.22;;;;;;;8.24;100.00;98708.50;5039533;28;20060;-63
2024/04/03 01:52:03;;;;;;;10.73;2.05;;;;;;;8.24;100.00;98702.97;5042208;28;20057;-63
2024/04/03 01:54:30;;;;;;;12.85;2.17;;;;;;;8.25;100.00;98699.84;5044163;28;20462;-63
2024/04/03 01:56:57;;;;;;;8.38;2.50;;;;;;;8.29;100.00;98705.41;5044753;28;20049;-63
2024/04/03 01:59:23;;;;;;;18.05;4.00;;;;;;;8.28;100.00;98692.81;5042517;28;20441;-64
2024/04/03 02:01:49;;;;;;;11.43;3.33;;;;;;;8.29;100.00;98703.47;5039905;28;20427;-64
2024/04/03 02:04:16;;;;;;;13.77;2.63;;;;;;;8.31;100.00;98692.06;5044515;28;20514;-63
2024/04/03 02:06:42;;;;;;;15.27;3.00;;;;;;;8.32;100.00;98690.88;5040371;28;20373;-64
2024/04/03 02:09:08;;;;;;;13.25;3.95;;;;;;;8.31;100.00;98687.31;5026443;28;20050;-64
2024/04/03 02:11:34;;;;;;;14.70;3.38;;;;;;;8.33;100.00;98686.97;5043508;28;20049;-64
2024/04/03 02:14:01;;;;;;;12.32;3.50;;;;;;;8.34;100.00;98683.81;5044317;28;20063;-63
2024/04/03 02:16:30;;;;;;;13.73;3.75;;;;;;;8.33;100.00;98679.50;5041219;28;20052;-64
2024/04/03 02:18:59;;;;;;;9.55;3.17;;;;;;;8.34;100.00;98678.28;5041804;28;20057;-64
2024/04/03 02:21:25;;;;;;;18.38;3.55;;;;;;;8.34;100.00;98678.28;5041534;28;20053;-64
2024/04/03 02:23:52;;;;;;;13.23;3.53;;;;;;;8.35;100.00;98676.34;5038013;28;20044;-64
2024/04/03 02:26:18;;;;;;;4.47;2.50;;;;;;;8.37;100.00;98676.75;5044844;28;20072;-64
2024/04/03 02:28:44;;;;;;;13.13;3.85;;;;;;;8.34;100.00;98683.03;5027316;28;20045;-64
2024/04/03 02:31:11;;;;;;;9.85;3.50;;;;;;;8.34;100.00;98680.28;5043902;28;20535;-64
2024/04/03 02:33:37;;;;;;;16.50;3.47;;;;;;;8.34;100.00;98672.00;5043970;28;20041;-64
2024/04/03 02:36:09;;;;;;;11.40;4.03;;;;;;;8.34;100.00;98675.53;5044852;28;20071;-64
2024/04/03 02:38:35;;;;;;;11.48;3.78;;;;;;;8.33;100.00;98670.41;5041728;28;20399;-63
2024/04/03 02:41:02;;;;;;;14.13;6.10;;;;;;;8.33;100.00;98667.66;5027968;28;20052;-64
2024/04/03 02:43:28;;;;;;;10.25;4.15;;;;;;;8.31;100.00;98668.03;5044244;28;20388;-64
2024/04/03 02:45:55;;;;;;;11.65;5.63;;;;;;;8.31;100.00;98664.50;5036837;28;20132;-65
2024/04/03 02:48:21;;;;;;;13.80;4.28;;;;;;;8.28;100.00;98660.53;5041444;28;20044;-63
2024/04/03 02:51:01;;;;;;;10.25;4.82;;;;;;;8.29;100.00;98653.03;5043539;28;20037;-64
2024/04/03 02:53:27;;;;;;;19.33;5.22;;;;;;;8.27;100.00;98647.13;5036296;28;20045;-64
2024/04/03 02:55:53;;;;;;;17.73;5.28;;;;;;;8.24;100.00;98653.34;5026777;28;20052;-64
2024/04/03 02:58:19;;;;;;;17.63;5.50;;;;;;;8.24;100.00;98654.16;5043826;28;20045;-64
2024/04/03 03:00:46;;;;;;;11.05;5.20;;;;;;;8.24;100.00;98656.91;5137059;22;21365;-63
2024/04/03 03:03:13;;;;;;;14.60;6.90;;;;;;;8.23;100.00;98640.78;5029814;28;20415;-63
2024/04/03 03:05:39;;;;;;;10.77;6.00;;;;;;;8.23;100.00;98640.78;5037851;28;20056;-63
2024/04/03 03:08:06;;;;;;;14.43;6.40;;;;;;;8.24;100.00;98642.34;5042243;28;20422;-63
2024/04/03 03:10:32;;;;;;;15.30;6.50;;;;;;;8.23;100.00;98638.00;5034798;28;20045;-63
2024/04/03 03:12:59;;;;;;;13.65;6.78;;;;;;;8.23;100.00;98629.75;5044139;28;20045;-63
2024/04/03 03:15:26;;;;;;;13.98;6.45;;;;;;;8.24;100.00;98636.81;5043888;28;20060;-63
2024/04/03 03:17:53;;;;;;;13.82;6.78;;;;;;;8.23;100.00;98630.53;5043222;28;20115;-63
2024/04/03 03:20:19;;;;;;;17.92;7.55;;;;;;;8.21;100.00;98619.09;5043580;28;20459;-63
2024/04/03 03:22:46;;;;;;;13.27;5.60;;;;;;;8.22;100.00;98628.94;5045224;28;20052;-64
2024/04/03 03:25:12;;;;;;;12.05;5.47;;;;;;;8.21;100.00;98627.34;5046537;28;20041;-63
2024/04/03 03:27:38;;;;;;;12.63;5.15;;;;;;;8.20;100.00;98625.78;5047652;28;20422;-63
2024/04/03 03:30:05;;;;;;;14.75;5.60;;;;;;;8.20;100.00;98625.78;5046946;28;20063;-63
2024/04/03 03:32:31;;;;;;;12.82;5.55;;;;;;;8.21;100.00;98629.31;5045356;28;20044;-62
2024/04/03 03:34:57;;;;;;;15.52;6.53;;;;;;;8.21;100.00;98632.06;5047475;28;20066;-62
2024/04/03 03:37:24;;;;;;;12.35;5.50;;;;;;;8.22;100.00;98615.16;5045962;28;20068;-62
2024/04/03 03:39:50;;;;;;;11.48;4.75;;;;;;;8.22;100.00;98628.16;5047077;28;20053;-63
2024/04/03 03:42:18;;;;;;;12.70;5.57;;;;;;;8.22;100.00;98620.69;5047339;28;20075;-64
2024/04/03 03:44:44;;;;;;;16.30;4.55;;;;;;;8.23;100.00;98618.72;5046878;28;20060;-63
2024/04/03 03:47:10;;;;;;;14.10;4.65;;;;;;;8.24;100.00;98620.28;5046685;28;20052;-62
2024/04/03 03:52:36;;;;;;;12.13;4.47;;;;;;;8.24;100.00;98625.78;5041738;28;20046;-63
2024/04/03 03:55:03;;;;;;;10.68;5.47;;;;;;;8.23;100.00;98624.22;5045245;28;20052;-63
2024/04/03 03:57:30;;;;;;;18.45;6.80;;;;;;;8.23;100.00;98625.03;5039527;28;20059;-63
2024/04/03 03:59:57;;;;;;;11.50;5.72;;;;;;;8.25;100.00;98627.38;5035990;28;20521;-62
2024/04/03 04:02:24;;;;;;;10.68;5.25;;;;;;;8.25;100.00;98628.19;5028920;28;20064;-63
2024/04/03 04:04:52;;;;;;;9.45;5.75;;;;;;;8.24;100.00;98634.06;5046836;28;20518;-62
2024/04/03 04:07:20;;;;;;;15.35;6.43;;;;;;;8.24;100.00;98623.03;5045809;28;20040;-62
2024/04/03 04:09:50;;;;;;;12.85;5.72;;;;;;;8.23;100.00;98632.50;5047136;28;20048;-63
2024/04/03 04:12:20;;;;;;;18.02;6.53;;;;;;;8.23;100.00;98635.25;5029435;28;20056;-63
2024/04/03 04:14:48;;;;;;;19.73;7.25;;;;;;;8.22;100.00;98630.91;5047356;28;20135;-62
2024/04/03 04:17:16;;;;;;;17.92;7.50;;;;;;;8.20;100.00;98636.00;5046182;28;20131;-62
2024/04/03 04:19:44;;;;;;;15.73;7.20;;;;;;;8.17;100.00;98634.81;5045961;28;20068;-63
2024/04/03 04:22:12;;;;;;;17.95;6.97;;;;;;;8.18;100.00;98632.84;5043835;28;20045;-63
2024/04/03 04:24:39;;;;;;;20.98;8.88;;;;;;;8.17;100.00;98634.00;5046870;28;20048;-62
2024/04/03 04:27:07;;;;;;;13.68;7.85;;;;;;;8.15;100.00;98630.84;5046162;28;20068;-62
2024/04/03 04:29:37;;;;;;;15.82;8.55;;;;;;;8.15;100.00;98628.09;5045632;28;20052;-63
2024/04/03 04:32:04;;;;;;;17.08;9.63;;;;;;;8.15;100.00;98639.91;5043421;28;20049;-62
2024/04/03 04:34:30;;;;;;;18.30;8.43;;;;;;;8.16;100.00;98643.44;5044877;28;20048;-63
2024/04/03 04:36:59;;;;;;;18.55;8.65;;;;;;;8.17;100.00;98645.03;5040690;28;20063;-63
2024/04/03 04:39:25;;;;;;;21.15;8.68;;;;;;;8.16;100.00;98646.19;5046427;28;20103;-63
2024/04/03 04:41:52;;;;;;;17.95;8.00;;;;;;;8.16;100.00;98641.47;5045277;28;20459;-63
2024/04/03 04:44:19;;;;;;;21.58;9.80;;;;;;;8.16;100.00;98646.19;5029959;28;20053;-63
2024/04/03 04:46:50;;;;;;;20.05;9.05;;;;;;;8.16;100.00;98640.69;5046047;28;20040;-63
2024/04/03 04:49:17;;;;;;;19.73;8.65;;;;;;;8.16;100.00;98651.72;5018084;28;20064;-63
2024/04/03 04:51:44;;;;;;;21.98;9.45;;;;;;;8.17;100.00;98656.06;5044572;28;20041;-62
2024/04/03 04:54:11;;;;;;;23.40;8.45;;;;;;;8.16;100.00;98648.94;5045696;28;20045;-62
2024/04/03 04:56:38;;;;;;;24.52;10.23;;;;;;;8.13;100.00;98646.97;5039864;28;20387;-62
2024/04/03 04:59:05;;;;;;;18.65;8.23;;;;;;;8.10;100.00;98653.25;5044675;28;20044;-62
2024/04/03 05:01:33;;;;;;;19.63;9.18;;;;;;;8.07;100.00;98665.81;5025405;28;20048;-62
2024/04/03 05:04:00;;;;;;;21.45;8.57;;;;;;;8.06;100.00;98669.75;5045126;28;20049;-63
2024/04/03 05:06:26;;;;;;;21.05;9.52;;;;;;;8.04;100.00;98666.56;5028776;28;20063;-63
2024/04/03 05:08:54;;;;;;;20.75;8.68;;;;;;;8.05;100.00;98672.88;5045067;28;20049;-63
2024/04/03 05:11:20;;;;;;;18.80;8.90;;;;;;;8.05;100.00;98686.66;5045806;28;20045;-62
2024/04/03 05:13:46;;;;;;;17.83;8.70;;;;;;;8.07;100.00;98687.06;5044493;28;20064;-62
2024/04/03 05:16:14;;;;;;;18.08;8.32;;;;;;;8.06;100.00;98685.47;5045572;28;20041;-62
2024/04/03 05:18:44;;;;;;;21.25;7.63;;;;;;;8.03;100.00;98686.22;5045038;28;20059;-62
2024/04/03 05:21:11;;;;;;;17.35;6.97;;;;;;;8.02;100.00;98688.22;5045736;28;20052;-62
2024/04/03 05:23:38;;;;;;;20.00;7.88;;;;;;;7.99;100.00;98691.72;5043701;28;20040;-63
2024/04/03 05:26:06;;;;;;;17.20;6.20;;;;;;;7.97;100.00;98685.78;5036240;28;20080;-63
2024/04/03 05:28:35;;;;;;;16.48;7.05;;;;;;;7.95;100.00;98686.16;5042104;28;20059;-63
2024/04/03 05:31:06;;;;;;;17.67;6.65;;;;;;;7.93;100.00;98690.47;5044096;28;20055;-62
2024/04/03 05:33:33;;;;;;;17.55;7.30;;;;;;;7.92;100.00;98680.59;5041163;28;20056;-62
2024/04/03 05:36:01;;;;;;;15.95;7.70;;;;;;;7.93;100.00;98683.00;5045493;28;20064;-62
2024/04/03 05:38:28;;;;;;;18.58;8.10;;;;;;;7.91;100.00;98688.09;5044552;28;20052;-62
2024/04/03 05:40:56;;;;;;;18.95;7.57;;;;;;;7.89;100.00;98695.13;5044664;28;20041;-62
2024/04/03 05:43:23;;;;;;;20.73;7.07;;;;;;;7.89;100.00;98697.88;5043568;28;20053;-62
2024/04/03 05:45:53;;;;;;;16.13;6.45;;;;;;;7.88;100.00;98708.13;5044175;28;20068;-62
2024/04/03 05:48:24;;;;;;;14.90;6.50;;;;;;;7.87;100.00;98705.75;5045364;28;20045;-62
2024/04/03 05:51:03;;;;;;;12.43;6.60;;;;;;;7.84;100.00;98700.97;5044996;28;20056;-62
2024/04/03 05:53:30;;;;;;;11.75;7.68;;;;;;;7.81;100.00;98708.03;5041949;28;20434;-62
2024/04/03 05:56:02;;;;;;;11.23;6.88;;;;;;;7.77;100.00;98698.97;5034315;28;20055;-62
2024/04/03 05:58:29;;;;;;;9.13;5.75;;;;;;;7.72;100.00;98713.06;5045052;28;20080;-63
2024/04/03 06:00:58;;;;;;;14.38;6.57;;;;;;;7.66;100.00;98706.28;5044352;28;20048;-62
2024/04/03 06:03:24;;;;;;;7.60;5.22;;;;;;;7.64;100.00;98708.63;5027148;28;20064;-61
2024/04/03 06:05:57;;;;;;;10.02;5.40;;;;;;;7.61;100.00;98725.09;5015959;28;20048;-62
2024/04/03 06:08:25;;;;;;;11.80;8.80;;;;;;;7.57;100.00;98719.53;5017215;28;20052;-62
2024/04/03 06:10:52;;;;;;;8.43;6.28;;;;;;;7.56;100.00;98717.97;5025206;28;20076;-62
2024/04/03 06:13:19;;;;;;;9.45;5.13;;;;;;;7.53;100.00;98721.47;5023500;28;20059;-62
2024/04/03 06:15:46;;;;;;;9.30;5.78;;;;;;;7.52;100.00;98721.88;5020279;28;20056;-62
2024/04/03 06:18:12;;;;;;;10.35;5.88;;;;;;;7.50;100.00;98733.22;5020965;28;20057;-62
2024/04/03 06:20:39;;;;;;;9.20;4.97;;;;;;;7.48;100.00;98732.81;5008288;28;20563;-62
2024/04/03 06:23:05;;;;;;;10.02;5.30;;;;;;;7.48;100.00;98732.03;5025459;28;20052;-62
2024/04/03 06:25:31;;;;;;;7.82;4.90;;;;;;;7.47;100.00;98745.00;4998582;28;20061;-62
2024/04/03 06:27:58;;;;;;;7.57;5.38;;;;;;;7.47;100.00;98733.97;5010023;28;20092;-62
2024/04/03 06:30:24;;;;;;;9.65;5.38;;;;;;;7.46;100.00;98754.44;5013612;28;20034;-62
2024/04/03 06:32:50;;;;;;;8.80;5.53;;;;;;;7.46;100.00;98757.19;5016931;28;20515;-62
2024/04/03 06:35:17;;;;;;;6.38;5.35;;;;;;;7.46;100.00;98751.69;5014375;28;20064;-62
2024/04/03 06:37:43;;;;;;;9.73;5.78;;;;;;;7.43;100.00;98763.44;5018606;28;20037;-63
2024/04/03 06:40:10;;;;;;;8.23;5.53;;;;;;;7.40;100.00;98761.41;5025191;28;20448;-62
2024/04/03 06:42:37;;;;;;;8.07;6.15;;;;;;;7.45;100.00;98769.34;5022211;28;20053;-62
2024/04/03 06:45:04;;;;;;;8.15;5.93;;;;;;;7.46;100.00;98772.91;5027655;28;20040;-62
2024/04/03 06:47:30;;;;;;;7.03;5.00;;;;;;;7.45;100.00;98768.56;5027504;28;20498;-61
2024/04/03 06:49:57;;;;;;;7.75;5.22;;;;;;;7.45;100.00;98774.06;5027615;28;20416;-62
2024/04/03 06:52:25;;;;;;;7.07;4.70;;;;;;;7.45;100.00;98774.84;5027643;28;20047;-62
2024/04/03 06:54:54;;;;;;;8.18;5.45;;;;;;;7.44;100.00;98775.25;5028195;28;20059;-62
2024/04/03 06:57:22;;;;;;;9.57;5.35;;;;;;;7.43;100.00;98774.44;5030195;28;20045;-62
2024/04/03 06:59:48;;;;;;;11.77;6.57;;;;;;;7.43;100.00;98779.16;5031353;28;20045;-62
2024/04/03 07:02:15;;;;;;;7.80;5.43;;;;;;;7.44;100.00;98789.00;5057372;28;20066;-61
2024/04/03 07:04:41;;;;;;;6.63;4.82;;;;;;;7.43;100.00;98784.66;5055638;28;20047;-61
2024/04/03 07:07:08;;;;;;;9.15;5.15;;;;;;;7.45;100.00;98793.31;5061403;28;20048;-61
2024/04/03 07:09:35;;;;;;;8.10;5.10;;;;;;;7.45;100.00;98794.13;5071521;28;20107;-61
2024/04/03 07:12:04;;;;;;;6.93;5.32;;;;;;;7.44;100.00;98797.28;5086413;28;20051;-61
2024/04/03 07:14:30;;;;;;;11.05;6.55;;;;;;;7.46;100.00;98794.94;5063528;28;20049;-61
2024/04/03 07:16:57;;;;;;;8.73;5.60;;;;;;;7.46;100.00;98806.75;5064304;28;20517;-61
2024/04/03 07:19:23;;;;;;;6.90;5.35;;;;;;;7.46;100.00;98806.75;5083799;28;20508;-61
2024/04/03 07:21:49;;;;;;;7.68;5.93;;;;;;;7.47;100.00;98815.78;5058008;28;20044;-61
2024/04/03 07:24:16;;;;;;;7.20;4.93;;;;;;;7.49;100.00;98808.75;5090415;28;20047;-60
2024/04/03 07:26:44;;;;;;;8.60;5.55;;;;;;;7.50;100.00;98813.09;5070870;28;20059;-60
2024/04/03 07:29:14;;;;;;;7.50;5.90;;;;;;;7.55;100.00;98818.25;5079021;28;20143;-62
2024/04/03 07:31:41;;;;;;;9.75;5.53;;;;;;;7.61;100.00;98818.75;5063413;28;20044;-61
2024/04/03 07:34:08;;;;;;;6.93;5.15;;;;;;;7.65;100.00;98820.38;5072812;28;20570;-61
2024/04/03 07:36:34;;;;;;;7.85;4.88;;;;;;;7.69;100.00;98826.72;5084601;28;20688;-61
2024/04/03 07:39:01;;;;;;;6.47;5.68;;;;;;;7.70;100.00;98828.34;5089341;28;20069;-61
2024/04/03 07:41:32;;;;;;;6.40;4.43;;;;;;;7.74;100.00;98831.91;5058805;28;20060;-62
2024/04/03 07:43:58;;;;;;;6.57;4.73;;;;;;;7.78;100.00;98830.00;5057193;28;20055;-61
2024/04/03 07:46:25;;;;;;;9.52;5.10;;;;;;;7.84;100.00;98839.53;5053119;28;20052;-63
2024/04/03 07:48:51;;;;;;;7.88;4.97;;;;;;;7.87;100.00;98833.28;5075018;28;20048;-61
2024/04/03 07:51:20;;;;;;;5.80;4.93;;;;;;;7.90;100.00;98846.31;5073197;28;20496;-61
2024/04/03 07:53:47;;;;;;;7.93;5.38;;;;;;;7.93;100.00;98842.81;5051738;28;20056;-61
2024/04/03 07:56:13;;;;;;;7.05;4.82;;;;;;;7.97;100.00;98846.38;5055651;28;20056;-62
2024/04/03 07:58:43;;;;;;;7.95;5.60;;;;;;;7.99;100.00;98849.56;5064746;28;20063;-61
2024/04/03 08:01:09;;;;;;;6.60;4.85;;;;;;;8.04;100.00;98864.19;5055737;28;20048;-61
2024/04/03 08:03:37;;;;;;;5.88;4.47;;;;;;;8.12;100.00;98860.34;5064002;28;20058;-61
2024/04/03 08:06:05;;;;;;;4.97;3.83;;;;;;;8.19;100.00;98865.94;5086295;28;20055;-62
2024/04/03 08:08:32;;;;;;;7.55;4.50;;;;;;;8.25;100.00;98881.81;5067197;28;20040;-62
2024/04/03 08:11:00;;;;;;;6.55;4.78;;;;;;;8.31;100.00;98879.53;5070955;28;20055;-62
2024/04/03 08:13:27;;;;;;;5.90;4.53;;;;;;;8.34;100.00;98884.31;5065011;28;20040;-63
2024/04/03 08:16:04;;;;;;;6.88;4.95;;;;;;;8.34;100.00;98890.59;5056741;28;20037;-61
2024/04/03 08:18:32;;;;;;;6.85;5.25;;;;;;;8.38;100.00;98891.44;5070948;28;20405;-61
2024/04/03 08:21:10;;;;;;;8.35;5.55;;;;;;;8.47;100.00;98893.91;5058069;28;20048;-62
2024/04/03 08:23:37;;;;;;;7.00;6.00;;;;;;;8.60;100.00;98897.22;5062275;28;20421;-61
2024/04/03 08:26:08;;;;;;;9.40;6.85;;;;;;;8.71;100.00;98898.13;5087583;28;20063;-61
2024/04/03 08:28:41;;;;;;;9.25;6.25;;;;;;;8.78;100.00;98904.50;5089857;28;20063;-60
2024/04/03 08:31:14;;;;;;;8.40;6.65;;;;;;;8.88;100.00;98898.31;5065558;28;20090;-62
2024/04/03 08:33:42;;;;;;;9.27;6.90;;;;;;;8.90;100.00;98908.97;5062117;28;20063;-61
2024/04/03 08:36:10;;;;;;;9.52;7.10;;;;;;;8.91;100.00;98907.78;5058418;28;20045;-62
2024/04/03 08:38:37;;;;;;;9.23;6.78;;;;;;;8.89;100.00;98910.94;5067133;28;20044;-60
2024/04/03 08:41:04;;;;;;;8.18;7.13;;;;;;;8.92;100.00;98932.25;5069331;28;20408;-61
2024/04/03 08:43:31;;;;;;;9.93;7.05;;;;;;;9.02;100.00;98920.53;5085784;28;20052;-63
2024/04/03 08:45:57;;;;;;;7.72;5.85;;;;;;;9.06;100.00;98937.91;5048479;28;20056;-60
2024/04/03 08:48:25;;;;;;;6.85;5.93;;;;;;;9.13;100.00;98929.69;5069203;28;20040;-61
2024/04/03 08:50:55;;;;;;;8.07;5.78;;;;;;;9.23;100.00;98928.22;5068475;28;20060;-60
2024/04/03 08:53:23;;;;;;;6.53;5.82;;;;;;;9.38;100.00;98943.75;5055890;28;20051;-62
2024/04/03 08:55:54;;;;;;;5.13;4.40;;;;;;;9.60;100.00;98947.50;5068637;28;20536;-60
2024/04/03 08:58:21;;;;;;;5.68;4.50;;;;;;;9.76;100.00;98948.03;5068415;28;20056;-60
2024/04/03 09:00:49;;;;;;;6.30;4.72;;;;;;;9.83;100.00;98948.06;5068134;28;20040;-61
2024/04/03 09:03:15;;;;;;;6.38;3.97;;;;;;;9.76;100.00;98964.59;5068191;28;20051;-61
2024/04/03 09:05:42;;;;;;;4.63;4.05;;;;;;;9.67;100.00;98964.94;5066005;28;20059;-61
2024/04/03 09:08:10;;;;;;;5.60;4.18;;;;;;;9.61;100.00;98971.19;5068325;28;20054;-60
2024/04/03 09:10:43;;;;;;;4.53;4.13;;;;;;;9.65;100.00;98966.47;5068434;28;20055;-61
2024/04/03 09:13:10;;;;;;;3.40;3.05;;;;;;;9.78;100.00;98970.53;5061757;28;20044;-60
2024/04/03 09:15:37;;;;;;;4.85;3.25;;;;;;;10.04;100.00;98984.16;5068458;28;20055;-61
2024/04/03 09:18:06;;;;;;;4.43;3.53;;;;;;;10.23;100.00;98972.88;5068029;28;20052;-61
2024/04/03 09:20:42;;;;;;;4.72;2.55;;;;;;;10.68;100.00;98973.50;5055264;28;20055;-61
2024/04/03 09:23:09;;;;;;;3.38;2.53;;;;;;;10.97;100.00;98994.56;5068576;28;20078;-61
2024/04/03 09:25:37;;;;;;;2.40;2.20;;;;;;;11.43;100.00;98984.41;5067483;28;20044;-62
2024/04/03 09:28:06;;;;;;;3.45;2.10;;;;;;;12.08;100.00;98988.81;5066780;28;20043;-61
2024/04/03 09:30:33;;;;;;;4.47;2.17;;;;;;;12.36;100.00;98991.56;5051191;28;20052;-61
2024/04/03 09:33:01;;;;;;;2.80;2.40;;;;;;;12.42;100.00;98998.28;5068176;28;20075;-61
2024/04/03 09:35:30;;;;;;;2.15;1.95;;;;;;;12.39;100.00;98995.53;5068568;28;20040;-61
2024/04/03 09:37:56;;;;;;;2.47;2.22;;;;;;;12.24;100.00;99005.84;5059443;28;20040;-62
2024/04/03 09:40:25;;;;;;;2.50;1.92;;;;;;;12.04;100.00;99001.91;5079347;28;20052;-61
2024/04/03 09:43:09;;;;;;;1.70;1.60;;;;;;;11.85;100.00;99000.31;5067850;28;20039;-63
2024/04/03 09:45:35;;;;;;;1.25;1.15;;;;;;;11.75;100.00;99005.88;5050627;28;20055;-61
2024/04/03 09:48:06;;;;;;;1.88;1.75;;;;;;;11.67;100.00;99009.78;5070856;28;20044;-61
2024/04/03 09:50:42;;;;;;;3.20;2.33;;;;;;;11.69;100.00;99013.78;5067573;28;20433;-62
2024/04/03 09:53:19;;;;;;;1.90;1.52;;;;;;;12.07;100.00;99012.97;5066688;28;20051;-61
2024/04/03 09:55:47;;;;;;;1.88;1.67;;;;;;;12.30;100.00;99020.09;5062760;28;20078;-62
2024/04/03 09:58:17;;;;;;;2.00;1.80;;;;;;;12.41;100.00;99021.69;5068100;28;20052;-61
2024/04/03 10:00:56;;;;;;;3.70;2.38;;;;;;;12.71;100.00;99019.22;5055374;28;20048;-62
2024/04/03 10:03:30;;;;;;;2.08;1.85;;;;;;;13.27;100.00;99040.47;5068121;28;20048;-62
2024/04/03 10:06:02;;;;;;;1.95;1.58;;;;;;;13.53;100.00;99033.56;5068040;28;20036;-62
2024/04/03 10:08:42;;;;;;;3.58;2.70;;;;;;;13.56;99.65;99038.31;5058849;28;20406;-62
2024/04/03 10:11:10;;;;;;;3.28;2.00;;;;;;;13.42;99.48;99038.41;5068463;28;20052;-61
2024/04/03 10:13:40;;;;;;;4.05;2.58;;;;;;;13.37;99.94;99044.38;5067594;28;20044;-62
2024/04/03 10:16:09;;;;;;;7.25;2.90;;;;;;;13.39;99.16;99042.00;5068554;28;20044;-61
2024/04/03 10:18:39;;;;;;;5.47;2.67;;;;;;;13.33;98.89;99038.06;5054243;28;20048;-62
2024/04/03 10:21:07;;;;;;;2.70;2.28;;;;;;;13.25;98.86;99044.84;5067902;28;20063;-61
2024/04/03 10:23:41;;;;;;;3.13;2.30;;;;;;;13.24;98.80;99046.84;5051234;28;20056;-61
2024/04/03 10:26:08;;;;;;;2.60;1.98;;;;;;;13.31;98.17;99048.81;5067734;28;20538;-61
2024/04/03 10:28:34;;;;;;;4.07;3.13;;;;;;;13.29;97.44;99048.41;5067647;28;20056;-61
2024/04/03 10:31:01;;;;;;;2.55;2.10;;;;;;;13.50;96.29;99053.06;5067570;28;20044;-61
2024/04/03 10:33:28;;;;;;;2.28;1.98;;;;;;;13.60;95.25;99058.56;5071489;28;20063;-61
2024/04/03 10:35:55;;;;;;;4.55;2.03;;;;;;;13.92;94.49;99064.72;5071324;28;20044;-61
2024/04/03 10:38:22;;;;;;;2.22;1.88;;;;;;;14.83;91.00;99070.69;5071576;28;20044;-61
2024/04/03 10:40:48;;;;;;;2.85;2.10;;;;;;;15.74;86.59;99082.75;5053350;28;20417;-61
2024/04/03 10:43:14;;;;;;;1.77;1.30;;;;;;;15.96;84.02;99082.44;5072213;28;20413;-61
2024/04/03 10:45:46;;;;;;;3.22;1.55;;;;;;;15.98;83.36;99083.59;5071061;28;20043;-61
2024/04/03 10:48:12;;;;;;;2.10;1.90;;;;;;;16.23;82.03;99086.78;5071630;28;20505;-61
2024/04/03 10:50:40;;;;;;;2.25;2.05;;;;;;;16.59;79.92;99097.41;5070901;28;20486;-61
2024/04/03 10:53:10;;;;;;;2.10;1.90;;;;;;;16.17;79.92;99099.66;5071533;28;20048;-61
2024/04/03 10:55:38;;;;;;;2.67;2.25;;;;;;;15.94;80.38;99102.38;5071149;28;20048;-61
2024/04/03 10:58:05;;;;;;;2.00;1.75;;;;;;;15.67;80.38;99098.81;5060311;28;20057;-61
2024/04/03 11:00:43;;;;;;;2.55;2.33;;;;;;;15.25;81.61;99106.44;5070539;28;20040;-61
2024/04/03 11:03:10;;;;;;;2.95;2.47;;;;;;;14.90;81.96;99118.00;5055218;28;20060;-61
2024/04/03 11:05:37;;;;;;;3.42;2.55;;;;;;;14.52;82.95;99114.38;5071210;28;20405;-61
2024/04/03 11:08:12;;;;;;;2.97;2.55;;;;;;;14.27;84.01;99124.09;5071178;28;20044;-62
2024/04/03 11:10:39;;;;;;;3.72;2.60;;;;;;;13.95;84.80;99115.97;5049720;28;20086;-61
2024/04/03 11:13:07;;;;;;;2.55;2.33;;;;;;;13.84;85.46;99118.81;5069555;28;20075;-62
2024/04/03 11:15:33;;;;;;;3.47;2.75;;;;;;;13.75;85.28;99121.25;5071044;28;20048;-61
2024/04/03 11:18:00;;;;;;;3.38;2.20;;;;;;;13.62;85.70;99117.34;5069097;28;20071;-62
2024/04/03 11:20:28;;;;;;;2.83;2.38;;;;;;;13.51;85.61;99124.94;5087767;28;20761;-63
2024/04/03 11:22:56;;;;;;;2.85;2.60;;;;;;;13.51;85.84;99116.59;5070341;28;20382;-62
2024/04/03 11:25:22;;;;;;;2.70;2.20;;;;;;;13.54;85.67;99121.34;5087572;28;20351;-62
2024/04/03 11:27:49;;;;;;;3.38;2.33;;;;;;;13.47;85.27;99126.97;5071087;28;20911;-61
2024/04/03 11:30:15;;;;;;;2.40;2.20;;;;;;;13.28;84.97;99128.22;5071314;28;20048;-62
2024/04/03 11:32:41;;;;;;;2.28;2.08;;;;;;;13.26;85.41;99127.81;5070101;28;20040;-63
2024/04/03 11:35:10;;;;;;;2.55;2.25;;;;;;;13.25;85.12;99125.44;5070855;28;20059;-61